Time;durP1;ratioP1;P1;durP2;ratioP2;P2;SDS_P1;SDS_P2;PMS_P1;PMS_P2;Temp;Humidity;BMP_temperature;BMP_pressure;BME280_temperature;BME280_humidity;BME280_pressure;Samples;Min_cycle;Max_cycle;Signal;HPM_P1;HPM_P2
2022/11/27 00:01:54;;;;;;;10.70;6.07;;;4.90;99.90;;;;;;5067895;28;20530;-64
2022/11/27 00:04:24;;;;;;;15.53;6.20;;;4.80;94.50;;;;;;5074186;28;20929;-64
2022/11/27 00:06:53;;;;;;;11.87;6.00;;;4.90;47.10;;;;;;5056369;28;20457;-64
2022/11/27 00:09:20;;;;;;;10.30;6.73;;;4.80;66.40;;;;;;5059625;28;20451;-64
2022/11/27 00:11:48;;;;;;;17.87;6.47;;;4.80;1.00;;;;;;5067406;28;20494;-64
2022/11/27 00:14:24;;;;;;;14.80;5.70;;;4.80;72.90;;;;;;5067155;28;20473;-64
2022/11/27 00:16:53;;;;;;;9.07;6.77;;;4.80;91.00;;;;;;5066296;28;20479;-65
2022/11/27 00:19:21;;;;;;;8.33;5.37;;;4.80;1.00;;;;;;5075562;28;20485;-64
2022/11/27 00:21:48;;;;;;;11.40;6.03;;;4.80;1.00;;;;;;5075357;28;20539;-64
2022/11/27 00:24:17;;;;;;;10.83;5.60;;;4.70;1.00;;;;;;5064157;28;20466;-63
2022/11/27 00:26:45;;;;;;;8.80;6.03;;;4.80;1.00;;;;;;5075689;28;20972;-64
2022/11/27 00:29:12;;;;;;;11.80;6.20;;;4.70;1.00;;;;;;5078238;28;20444;-64
2022/11/27 00:31:41;;;;;;;8.13;6.10;;;4.70;1.00;;;;;;5059541;28;20490;-64
2022/11/27 00:34:10;;;;;;;9.93;5.83;;;4.70;1.00;;;;;;5060393;28;20557;-65
2022/11/27 00:36:38;;;;;;;10.30;5.20;;;4.70;1.00;;;;;;5071706;28;20523;-64
2022/11/27 00:39:05;;;;;;;10.93;6.80;;;4.60;1.00;;;;;;5079673;28;20450;-64
2022/11/27 00:41:34;;;;;;;9.80;5.90;;;4.70;1.00;;;;;;5063442;28;20561;-64
2022/11/27 00:44:02;;;;;;;10.20;6.40;;;4.60;1.00;;;;;;5060306;28;20474;-64
2022/11/27 00:46:33;;;;;;;9.93;6.07;;;4.60;1.00;;;;;;5059502;28;20470;-65
2022/11/27 00:49:04;;;;;;;9.83;6.07;;;4.60;1.00;;;;;;5059345;28;20462;-64
2022/11/27 00:51:31;;;;;;;11.50;6.60;;;4.60;1.00;;;;;;5060856;28;20473;-65
2022/11/27 00:53:59;;;;;;;14.63;7.10;;;4.60;1.00;;;;;;5077882;28;20487;-65
2022/11/27 00:56:29;;;;;;;14.13;6.87;;;4.50;1.00;;;;;;5078505;28;20490;-65
2022/11/27 00:59:00;;;;;;;12.80;5.83;;;4.50;1.00;;;;;;5073807;28;20653;-65
2022/11/27 01:01:29;;;;;;;12.20;6.00;;;4.50;1.00;;;;;;5059882;28;20466;-65
2022/11/27 01:03:58;;;;;;;15.77;6.63;;;4.50;1.00;;;;;;5058830;28;20942;-65
2022/11/27 01:06:27;;;;;;;10.90;6.50;;;4.50;1.00;;;;;;5059104;28;20900;-65
2022/11/27 01:08:54;;;;;;;7.43;5.20;;;4.40;1.00;;;;;;5070779;28;20477;-65
2022/11/27 01:11:24;;;;;;;10.77;7.47;;;4.30;1.00;;;;;;5062062;28;20450;-65
2022/11/27 01:13:55;;;;;;;8.73;6.10;;;4.30;1.00;;;;;;5076834;28;20476;-65
2022/11/27 01:16:26;;;;;;;7.60;5.90;;;4.30;1.00;;;;;;5058843;28;20557;-65
2022/11/27 01:18:56;;;;;;;10.90;6.93;;;4.20;1.00;;;;;;5058494;28;20748;-65
2022/11/27 01:21:23;;;;;;;7.93;6.07;;;4.20;1.00;;;;;;5060198;28;20926;-65
2022/11/27 01:23:51;;;;;;;9.17;6.53;;;4.20;54.50;;;;;;5076959;28;20479;-65
2022/11/27 01:26:25;;;;;;;8.10;5.97;;;4.20;99.90;;;;;;5059584;28;20458;-65
2022/11/27 01:28:53;;;;;;;11.83;6.10;;;4.10;26.70;;;;;;5058706;28;20854;-65
2022/11/27 01:31:30;;;;;;;10.83;6.27;;;4.10;99.90;;;;;;5058704;28;20553;-65
2022/11/27 01:33:59;;;;;;;9.60;7.00;;;4.20;99.90;;;;;;5059571;28;20937;-65
2022/11/27 01:36:27;;;;;;;14.07;6.90;;;4.20;99.90;;;;;;5057251;28;20552;-65
2022/11/27 01:38:55;;;;;;;10.57;7.00;;;4.20;99.90;;;;;;5069753;28;20458;-65
2022/11/27 01:41:24;;;;;;;14.63;8.50;;;4.20;99.90;;;;;;5078334;28;20457;-65
2022/11/27 01:43:55;;;;;;;14.30;8.47;;;4.20;99.90;;;;;;5077021;28;20432;-65
2022/11/27 01:46:38;;;;;;;10.83;7.43;;;4.30;99.90;;;;;;5078301;28;20458;-65
2022/11/27 01:49:23;;;;;;;10.10;6.10;;;4.30;99.90;;;;;;5071859;28;20440;-65
2022/11/27 01:51:58;;;;;;;11.00;6.43;;;4.20;93.40;;;;;;5058321;28;20528;-65
2022/11/27 01:54:28;;;;;;;15.63;6.80;;;4.10;70.50;;;;;;5056411;28;20465;-65
2022/11/27 01:56:58;;;;;;;9.70;7.40;;;4.20;99.90;;;;;;5057144;28;20441;-65
2022/11/27 01:59:26;;;;;;;12.53;7.57;;;4.30;99.90;;;;;;5061168;28;20465;-65
2022/11/27 02:01:58;;;;;;;10.50;7.00;;;4.30;90.60;;;;;;5078007;28;20473;-65
2022/11/27 02:04:25;;;;;;;12.53;7.60;;;4.20;1.00;;;;;;5075665;28;20779;-65
2022/11/27 02:06:57;;;;;;;15.80;9.23;;;4.10;1.00;;;;;;5078308;28;20551;-65
2022/11/27 02:09:25;;;;;;;11.37;7.37;;;4.10;1.00;;;;;;5077054;28;20749;-65
2022/11/27 02:11:56;;;;;;;11.40;7.17;;;4.10;27.00;;;;;;5059540;28;20451;-65
2022/11/27 02:14:30;;;;;;;10.43;6.43;;;4.10;95.10;;;;;;5057826;28;20473;-65
2022/11/27 02:17:08;;;;;;;10.10;6.53;;;4.10;99.90;;;;;;5057624;28;20505;-65
2022/11/27 02:20:01;;;;;;;11.50;6.50;;;4.10;99.90;;;;;;5057712;28;20545;-65
2022/11/27 02:22:42;;;;;;;9.43;7.37;;;4.10;99.90;;;;;;5058916;28;20558;-65
2022/11/27 02:25:22;;;;;;;8.90;6.37;;;4.10;99.90;;;;;;5058428;28;20557;-65
2022/11/27 02:28:18;;;;;;;10.13;6.50;;;4.10;99.90;;;;;;5058190;28;20764;-65
2022/11/27 02:30:51;;;;;;;10.10;7.27;;;4.10;99.90;;;;;;5061328;28;20453;-65
2022/11/27 02:33:21;;;;;;;11.37;8.57;;;4.20;99.90;;;;;;5077972;28;20468;-65
2022/11/27 02:35:52;;;;;;;10.20;7.00;;;4.10;99.90;;;;;;5068607;28;20873;-65
2022/11/27 02:38:26;;;;;;;9.73;6.57;;;4.10;99.90;;;;;;5057769;28;20822;-65
2022/11/27 02:41:00;;;;;;;15.90;7.63;;;4.10;99.90;;;;;;5058300;28;20462;-65
2022/11/27 02:43:31;;;;;;;8.67;6.70;;;4.10;99.90;;;;;;5075872;28;20457;-65
2022/11/27 02:46:02;;;;;;;10.70;7.27;;;4.10;53.80;;;;;;5077924;28;20436;-65
2022/11/27 02:48:34;;;;;;;12.77;6.70;;;4.20;24.60;;;;;;5076912;28;20461;-65
2022/11/27 02:51:03;;;;;;;11.40;6.10;;;4.20;1.00;;;;;;5077488;28;20461;-65
2022/11/27 02:53:36;;;;;;;10.53;6.67;;;4.20;1.00;;;;;;5061463;28;20489;-64
2022/11/27 02:56:05;;;;;;;12.37;7.07;;;4.20;1.00;;;;;;5069357;28;20556;-65
2022/11/27 02:58:34;;;;;;;11.07;5.70;;;4.20;1.00;;;;;;5077169;28;20439;-65
2022/11/27 03:01:05;;;;;;;10.37;6.37;;;4.20;1.00;;;;;;5077680;28;20556;-65
2022/11/27 03:03:38;;;;;;;9.37;6.60;;;4.20;1.00;;;;;;5060706;28;20488;-65
2022/11/27 03:06:10;;;;;;;11.97;7.03;;;4.20;1.00;;;;;;5058138;28;20462;-65
2022/11/27 03:08:48;;;;;;;12.00;6.17;;;4.20;1.00;;;;;;5077438;28;20740;-65
2022/11/27 03:11:16;;;;;;;10.60;5.67;;;4.10;1.00;;;;;;5077268;28;20535;-65
2022/11/27 03:13:45;;;;;;;11.17;6.40;;;4.10;1.00;;;;;;5063152;28;20453;-65
2022/11/27 03:16:20;;;;;;;15.40;7.53;;;4.10;1.00;;;;;;5056719;28;20466;-65
2022/11/27 03:18:54;;;;;;;10.20;7.17;;;4.10;1.00;;;;;;5057303;28;20440;-65
2022/11/27 03:21:28;;;;;;;12.17;6.90;;;4.10;1.00;;;;;;5057445;28;20564;-65
2022/11/27 03:23:57;;;;;;;9.00;6.40;;;4.10;1.00;;;;;;5068060;28;20518;-65
2022/11/27 03:26:24;;;;;;;8.00;6.50;;;4.00;1.00;;;;;;5076962;28;20754;-65
2022/11/27 03:28:53;;;;;;;10.57;6.80;;;4.00;1.00;;;;;;5064593;28;20852;-65
2022/11/27 03:31:25;;;;;;;11.30;7.80;;;3.90;1.00;;;;;;5076138;28;20494;-65
2022/11/27 03:33:52;;;;;;;11.10;7.27;;;4.00;43.50;;;;;;5074458;28;20481;-65
2022/11/27 03:36:21;;;;;;;13.57;8.13;;;4.00;78.70;;;;;;5074510;28;20543;-65
2022/11/27 03:38:50;;;;;;;13.80;7.87;;;4.10;1.00;;;;;;5075588;28;20436;-65
2022/11/27 03:41:24;;;;;;;14.40;7.17;;;4.10;1.00;;;;;;5075942;28;20436;-65
2022/11/27 03:44:10;;;;;;;13.87;7.47;;;4.20;1.00;;;;;;5073019;28;20823;-65
2022/11/27 03:46:50;;;;;;;14.10;8.87;;;4.10;1.00;;;;;;5074330;28;20461;-65
2022/11/27 03:49:27;;;;;;;14.27;8.03;;;4.20;1.00;;;;;;5077082;28;20465;-65
2022/11/27 03:52:03;;;;;;;12.80;7.80;;;4.00;99.90;;;;;;5077436;28;20446;-65
2022/11/27 03:54:43;;;;;;;15.37;8.63;;;4.00;99.90;;;;;;5071363;28;20464;-65
2022/11/27 03:57:18;;;;;;;14.20;8.07;;;4.00;1.00;;;;;;5058149;28;20515;-65
2022/11/27 03:59:49;;;;;;;15.97;8.93;;;3.90;1.00;;;;;;5056984;28;20479;-65
2022/11/27 04:02:30;;;;;;;12.43;7.73;;;4.10;1.00;;;;;;5060739;28;20565;-65
2022/11/27 04:04:57;;;;;;;14.83;8.80;;;4.10;1.00;;;;;;5064223;28;20453;-65
2022/11/27 04:07:28;;;;;;;13.70;8.63;;;4.10;1.00;;;;;;5079161;28;20458;-65
2022/11/27 04:09:55;;;;;;;14.90;8.37;;;4.10;99.90;;;;;;5081268;28;20442;-65
2022/11/27 04:12:22;;;;;;;11.23;8.60;;;4.20;99.90;;;;;;5080235;28;20457;-65
2022/11/27 04:14:50;;;;;;;12.80;7.97;;;4.20;99.90;;;;;;5079785;28;20469;-65
2022/11/27 04:17:18;;;;;;;14.10;8.97;;;4.20;99.90;;;;;;5060490;28;20443;-65
2022/11/27 04:19:46;;;;;;;19.57;9.87;;;4.30;99.90;;;;;;5061752;28;20458;-65
2022/11/27 04:22:13;;;;;;;15.43;9.53;;;4.30;99.90;;;;;;5060538;28;20883;-65
2022/11/27 04:24:40;;;;;;;17.03;9.80;;;4.30;99.90;;;;;;5060051;28;20479;-65
2022/11/27 04:27:08;;;;;;;18.20;8.93;;;4.30;99.90;;;;;;5075250;28;20443;-65
2022/11/27 04:29:36;;;;;;;17.73;7.80;;;4.30;99.90;;;;;;5079860;28;20464;-65
2022/11/27 04:32:07;;;;;;;12.43;7.30;;;4.30;99.90;;;;;;5060837;28;20474;-65
2022/11/27 04:34:37;;;;;;;12.90;8.67;;;4.30;99.90;;;;;;5059778;28;20537;-65
2022/11/27 04:37:04;;;;;;;15.50;9.50;;;4.30;99.90;;;;;;5070593;28;20523;-65
2022/11/27 04:39:34;;;;;;;16.60;8.80;;;4.30;97.60;;;;;;5078493;28;20473;-66
2022/11/27 04:42:03;;;;;;;13.00;8.93;;;4.30;98.00;;;;;;5080075;28;20436;-65
2022/11/27 04:44:30;;;;;;;15.83;9.80;;;4.40;96.90;;;;;;5079790;28;20732;-65
2022/11/27 04:47:01;;;;;;;14.00;9.33;;;4.40;63.00;;;;;;5073314;28;20458;-65
2022/11/27 04:49:28;;;;;;;15.63;8.67;;;4.40;68.40;;;;;;5060132;28;20561;-65
2022/11/27 04:51:57;;;;;;;17.37;9.73;;;4.40;65.70;;;;;;5070519;28;20443;-65
2022/11/27 04:54:26;;;;;;;16.27;9.83;;;4.30;77.00;;;;;;5079692;28;20516;-65
2022/11/27 04:56:53;;;;;;;16.00;9.47;;;4.40;92.40;;;;;;5077937;28;20988;-65
2022/11/27 04:59:21;;;;;;;14.53;9.73;;;4.40;93.50;;;;;;5060716;28;20765;-65
2022/11/27 05:01:48;;;;;;;15.07;10.07;;;4.40;97.20;;;;;;5059270;28;20473;-65
2022/11/27 05:04:16;;;;;;;14.70;9.60;;;4.50;66.20;;;;;;5059136;28;20493;-65
2022/11/27 05:06:46;;;;;;;20.87;10.33;;;4.50;26.10;;;;;;5059504;28;20564;-65
2022/11/27 05:09:16;;;;;;;14.40;10.00;;;4.50;1.70;;;;;;5075838;28;20464;-65
2022/11/27 05:11:44;;;;;;;12.40;9.20;;;4.60;1.00;;;;;;5076544;28;20461;-65
2022/11/27 05:14:16;;;;;;;14.63;9.33;;;4.60;1.00;;;;;;5059444;28;20555;-65
2022/11/27 05:16:46;;;;;;;13.70;9.30;;;4.70;1.00;;;;;;5059232;28;20473;-65
2022/11/27 05:19:14;;;;;;;17.73;10.37;;;4.60;1.00;;;;;;5071306;28;20446;-65
2022/11/27 05:21:41;;;;;;;14.10;10.50;;;4.70;1.00;;;;;;5078968;28;20436;-65
2022/11/27 05:24:09;;;;;;;12.53;8.63;;;4.70;1.00;;;;;;5077329;28;20560;-65
2022/11/27 05:26:40;;;;;;;15.70;10.80;;;4.60;1.00;;;;;;5078879;28;20546;-65
2022/11/27 05:29:07;;;;;;;15.07;9.33;;;4.70;1.00;;;;;;5070045;28;20510;-66
2022/11/27 05:31:35;;;;;;;17.00;10.90;;;4.70;1.00;;;;;;5060118;28;21000;-65
2022/11/27 05:34:05;;;;;;;13.80;8.77;;;4.70;1.00;;;;;;5059333;28;20494;-65
2022/11/27 05:36:33;;;;;;;15.20;8.40;;;4.70;1.00;;;;;;5058653;28;20906;-65
2022/11/27 05:39:01;;;;;;;16.47;9.37;;;4.70;1.00;;;;;;5062572;28;20433;-65
2022/11/27 05:41:29;;;;;;;20.07;9.90;;;4.70;1.00;;;;;;5079227;28;20551;-60
2022/11/27 05:44:00;;;;;;;17.70;10.40;;;4.80;1.00;;;;;;5076664;28;20849;-64
2022/11/27 05:46:27;;;;;;;16.50;9.43;;;4.80;1.00;;;;;;5078282;28;20508;-65
2022/11/27 05:48:54;;;;;;;13.30;10.20;;;4.80;1.00;;;;;;5078741;28;20830;-64
2022/11/27 05:51:22;;;;;;;17.30;10.90;;;4.80;1.00;;;;;;5059083;28;21019;-64
2022/11/27 05:53:49;;;;;;;23.40;10.33;;;4.80;1.00;;;;;;5059805;28;20514;-65
2022/11/27 05:56:18;;;;;;;16.77;9.60;;;4.90;1.00;;;;;;5058620;28;20444;-65
2022/11/27 05:58:47;;;;;;;13.80;9.90;;;4.80;1.00;;;;;;5058552;28;20462;-65
2022/11/27 06:01:19;;;;;;;16.03;10.17;;;4.90;1.00;;;;;;5072341;28;20899;-65
2022/11/27 06:03:46;;;;;;;16.37;10.23;;;4.90;1.00;;;;;;5077999;28;20488;-65
2022/11/27 06:06:16;;;;;;;19.43;10.50;;;4.90;1.00;;;;;;5059680;28;20528;-65
2022/11/27 06:08:44;;;;;;;12.93;9.17;;;4.90;1.00;;;;;;5058150;28;20488;-64
2022/11/27 06:11:25;;;;;;;13.50;9.63;;;5.00;1.00;;;;;;5067864;28;20462;-65
2022/11/27 06:13:52;;;;;;;16.47;9.77;;;4.90;1.00;;;;;;5085476;28;20455;-65
2022/11/27 06:16:23;;;;;;;17.97;10.10;;;5.00;1.00;;;;;;5086589;28;20432;-64
2022/11/27 06:18:52;;;;;;;14.47;9.70;;;5.10;1.00;;;;;;5083397;28;20874;-65
2022/11/27 06:21:20;;;;;;;15.60;10.27;;;5.10;1.00;;;;;;5086149;28;20435;-65
2022/11/27 06:23:48;;;;;;;12.00;9.40;;;5.10;1.00;;;;;;5081629;28;20455;-65
2022/11/27 06:26:22;;;;;;;12.43;7.97;;;5.10;1.00;;;;;;5087156;28;20453;-66
2022/11/27 06:28:49;;;;;;;13.80;9.33;;;5.10;1.00;;;;;;5083306;28;20429;-65
2022/11/27 06:31:18;;;;;;;16.53;8.97;;;5.10;1.00;;;;;;5085496;28;20464;-65
2022/11/27 06:33:47;;;;;;;15.37;10.03;;;5.10;1.00;;;;;;5085426;28;20930;-66
2022/11/27 06:36:15;;;;;;;14.00;9.83;;;5.10;1.00;;;;;;5085659;28;20853;-66
2022/11/27 06:38:43;;;;;;;15.70;10.20;;;5.10;1.00;;;;;;5085048;28;20432;-65
2022/11/27 06:41:12;;;;;;;14.50;10.03;;;5.10;1.00;;;;;;5086758;28;20441;-65
2022/11/27 06:43:40;;;;;;;15.70;10.20;;;5.10;1.00;;;;;;5084740;28;20484;-65
2022/11/27 06:46:09;;;;;;;15.07;11.33;;;5.10;1.00;;;;;;5084492;28;20464;-65
2022/11/27 06:48:39;;;;;;;15.77;10.77;;;5.10;1.00;;;;;;5085567;28;20907;-65
2022/11/27 06:51:11;;;;;;;13.90;9.67;;;5.10;1.00;;;;;;5087269;28;20459;-65
2022/11/27 06:53:39;;;;;;;14.60;10.40;;;5.10;1.00;;;;;;5086410;28;20460;-64
2022/11/27 06:56:10;;;;;;;14.57;9.10;;;5.10;1.00;;;;;;5084879;28;20460;-64
2022/11/27 06:58:37;;;;;;;19.10;9.67;;;5.20;1.00;;;;;;5081591;28;20457;-65
2022/11/27 07:01:11;;;;;;;19.80;10.80;;;5.10;1.00;;;;;;5077153;28;20796;-64
2022/11/27 07:03:38;;;;;;;14.70;9.73;;;5.20;1.00;;;;;;5076055;28;20477;-64
2022/11/27 07:06:10;;;;;;;15.80;10.10;;;5.20;1.00;;;;;;5077426;28;20643;-65
2022/11/27 07:08:37;;;;;;;14.57;9.10;;;5.20;1.00;;;;;;5075150;28;20745;-64
2022/11/27 07:11:06;;;;;;;14.17;9.90;;;5.20;1.00;;;;;;5077420;28;20462;-64
2022/11/27 07:13:33;;;;;;;17.13;10.33;;;5.30;1.00;;;;;;5069760;28;20468;-63
2022/11/27 07:16:09;;;;;;;12.83;8.67;;;5.30;1.00;;;;;;5057010;28;20437;-63
2022/11/27 07:18:37;;;;;;;18.57;9.97;;;5.30;1.00;;;;;;5056334;28;20487;-65
2022/11/27 07:21:04;;;;;;;15.90;9.30;;;5.30;1.00;;;;;;5057020;28;20441;-64
2022/11/27 07:23:33;;;;;;;19.57;9.77;;;5.30;1.00;;;;;;5059527;28;20461;-64
2022/11/27 07:26:06;;;;;;;11.30;9.10;;;5.30;1.00;;;;;;5075332;28;20522;-64
2022/11/27 07:28:33;;;;;;;15.40;9.30;;;5.40;1.00;;;;;;5076716;28;20436;-64
2022/11/27 07:31:01;;;;;;;14.10;9.10;;;5.40;1.00;;;;;;5082486;28;20461;-64
2022/11/27 07:33:29;;;;;;;11.87;8.03;;;5.50;1.00;;;;;;5085440;28;20460;-64
2022/11/27 07:35:59;;;;;;;11.70;7.87;;;5.50;1.00;;;;;;5087454;28;20427;-63
2022/11/27 07:38:26;;;;;;;13.87;9.03;;;5.50;1.00;;;;;;5084043;28;20463;-64
2022/11/27 07:41:00;;;;;;;10.90;7.83;;;5.60;1.00;;;;;;5091364;28;20431;-63
2022/11/27 07:43:27;;;;;;;15.30;9.03;;;5.60;1.00;;;;;;5090464;28;20562;-64
2022/11/27 07:45:54;;;;;;;13.47;8.53;;;5.70;1.00;;;;;;5086447;28;20461;-64
2022/11/27 07:48:22;;;;;;;12.43;8.87;;;5.70;1.00;;;;;;5090384;28;20470;-63
2022/11/27 07:50:51;;;;;;;13.60;8.87;;;5.70;1.00;;;;;;5092789;28;20556;-63
2022/11/27 07:53:19;;;;;;;12.00;9.43;;;5.70;1.00;;;;;;5063297;28;20504;-63
2022/11/27 07:55:46;;;;;;;16.50;8.77;;;5.70;1.00;;;;;;5081334;28;20518;-62
2022/11/27 07:58:15;;;;;;;14.90;8.60;;;5.70;1.00;;;;;;5085767;28;20466;-63
2022/11/27 08:00:42;;;;;;;12.73;8.30;;;5.80;1.00;;;;;;5071611;28;20462;-64
2022/11/27 08:03:10;;;;;;;11.53;8.20;;;5.80;1.00;;;;;;5063335;28;20508;-63
2022/11/27 08:05:38;;;;;;;11.90;7.83;;;5.80;1.00;;;;;;5068261;28;20838;-63
2022/11/27 08:08:08;;;;;;;11.93;8.40;;;5.80;1.00;;;;;;5083406;28;20469;-64
2022/11/27 08:10:40;;;;;;;14.27;8.97;;;5.80;1.00;;;;;;5085623;28;20942;-62
2022/11/27 08:13:08;;;;;;;12.70;7.70;;;5.90;1.00;;;;;;5081525;28;20565;-63
2022/11/27 08:15:38;;;;;;;13.57;8.17;;;5.90;1.00;;;;;;5090269;28;20460;-63
2022/11/27 08:18:05;;;;;;;11.37;8.57;;;6.00;1.00;;;;;;5087798;28;20452;-63
2022/11/27 08:20:33;;;;;;;12.83;8.17;;;6.10;1.00;;;;;;5089295;28;20468;-63
2022/11/27 08:23:00;;;;;;;12.27;8.73;;;6.10;1.00;;;;;;5063417;28;20464;-63
2022/11/27 08:25:33;;;;;;;10.03;7.53;;;6.10;1.00;;;;;;5061905;28;20462;-63
2022/11/27 08:28:00;;;;;;;11.33;7.90;;;6.20;1.00;;;;;;5078017;28;20530;-62
2022/11/27 08:30:28;;;;;;;18.10;11.13;;;6.20;1.00;;;;;;5079695;28;20442;-63
2022/11/27 08:32:57;;;;;;;34.37;21.30;;;6.20;1.00;;;;;;5079207;28;20459;-63
2022/11/27 08:35:28;;;;;;;24.83;15.73;;;6.30;1.00;;;;;;5084880;28;21007;-63
2022/11/27 08:37:57;;;;;;;16.60;10.83;;;6.40;1.00;;;;;;5082044;28;20468;-63
2022/11/27 08:40:25;;;;;;;20.37;10.93;;;6.50;1.00;;;;;;5080946;28;20514;-63
2022/11/27 08:42:53;;;;;;;14.13;9.20;;;6.50;1.00;;;;;;5085862;28;20483;-63
2022/11/27 08:45:20;;;;;;;20.63;10.63;;;6.60;1.00;;;;;;5094903;28;20535;-62
2022/11/27 08:47:50;;;;;;;9.30;7.73;;;6.60;1.00;;;;;;5093599;28;20904;-62
2022/11/27 08:50:22;;;;;;;11.30;8.13;;;6.70;1.00;;;;;;5087465;28;20924;-62
2022/11/27 08:52:50;;;;;;;12.63;8.00;;;6.80;1.00;;;;;;5094690;28;20464;-62
2022/11/27 08:55:17;;;;;;;11.00;7.60;;;6.80;1.00;;;;;;5058536;28;20588;-62
2022/11/27 08:57:47;;;;;;;11.83;8.00;;;6.90;1.00;;;;;;5059392;28;20447;-63
2022/11/27 09:00:16;;;;;;;14.20;7.93;;;6.90;1.00;;;;;;5072173;28;20545;-62
2022/11/27 09:02:44;;;;;;;13.70;7.03;;;7.10;1.00;;;;;;5079057;28;20896;-62
2022/11/27 09:05:11;;;;;;;11.37;7.60;;;7.10;1.00;;;;;;5078623;28;20465;-62
2022/11/27 09:07:40;;;;;;;11.10;8.50;;;7.20;1.00;;;;;;5079582;28;20894;-62
2022/11/27 09:10:09;;;;;;;12.67;8.73;;;7.30;1.00;;;;;;5070378;28;20462;-62
2022/11/27 09:12:36;;;;;;;11.47;8.03;;;7.40;1.00;;;;;;5069049;28;20436;-62
2022/11/27 09:15:04;;;;;;;9.00;7.87;;;7.40;1.00;;;;;;5078280;28;20937;-62
2022/11/27 09:17:33;;;;;;;10.50;7.47;;;7.40;99.90;;;;;;5078325;28;20556;-62
2022/11/27 09:20:00;;;;;;;10.30;7.43;;;7.40;99.90;;;;;;5074840;28;20725;-62
2022/11/27 09:22:27;;;;;;;10.13;7.80;;;7.40;99.90;;;;;;5082429;28;20466;-63
2022/11/27 09:24:56;;;;;;;10.97;7.30;;;7.40;99.90;;;;;;5076560;28;20429;-62
2022/11/27 09:27:23;;;;;;;10.77;7.10;;;7.40;99.90;;;;;;5059054;28;20466;-62
2022/11/27 09:29:54;;;;;;;11.13;6.90;;;7.40;99.90;;;;;;5059376;28;20464;-62
2022/11/27 09:32:23;;;;;;;11.93;7.70;;;7.50;99.90;;;;;;5077526;28;20530;-62
2022/11/27 09:34:58;;;;;;;7.47;6.63;;;7.60;99.90;;;;;;5085892;28;20485;-62
2022/11/27 09:37:26;;;;;;;13.13;8.13;;;7.70;99.90;;;;;;5086075;28;20456;-62
2022/11/27 09:39:56;;;;;;;11.70;7.17;;;7.70;99.90;;;;;;5085834;28;20506;-62
2022/11/27 09:42:37;;;;;;;12.20;6.87;;;7.60;99.90;;;;;;5084448;28;20461;-62
2022/11/27 09:45:08;;;;;;;10.37;7.70;;;7.60;99.90;;;;;;5086331;28;20453;-63
2022/11/27 09:47:41;;;;;;;10.43;7.50;;;7.50;99.90;;;;;;5085845;28;20477;-62
2022/11/27 09:50:16;;;;;;;8.40;7.20;;;7.60;99.90;;;;;;5086220;28;20868;-62
2022/11/27 09:52:49;;;;;;;11.30;7.80;;;7.50;99.90;;;;;;5086004;28;20461;-61
2022/11/27 09:55:26;;;;;;;10.80;7.40;;;7.60;99.90;;;;;;5087586;28;20481;-62
2022/11/27 09:57:59;;;;;;;15.20;7.50;;;7.60;99.90;;;;;;5084438;28;20460;-61
2022/11/27 10:00:27;;;;;;;8.40;6.70;;;7.60;99.90;;;;;;5093508;28;20460;-61
2022/11/27 10:02:55;;;;;;;11.73;7.10;;;7.70;99.90;;;;;;5076223;28;20535;-61
2022/11/27 10:05:25;;;;;;;13.33;7.40;;;7.70;99.90;;;;;;5078724;28;20457;-61
2022/11/27 10:08:10;;;;;;;9.33;6.27;;;7.80;99.90;;;;;;5078792;28;20492;-61
2022/11/27 10:10:48;;;;;;;10.20;7.47;;;7.80;99.90;;;;;;5077889;28;20504;-61
2022/11/27 10:13:29;;;;;;;12.50;7.10;;;7.80;99.90;;;;;;5058293;28;20458;-60
2022/11/27 10:16:03;;;;;;;9.90;7.00;;;7.90;99.90;;;;;;5059257;28;20482;-61
2022/11/27 10:18:40;;;;;;;12.83;6.60;;;8.00;99.90;;;;;;5058008;28;20872;-61
2022/11/27 10:21:15;;;;;;;11.40;6.60;;;8.00;99.90;;;;;;5058022;28;20462;-62
2022/11/27 10:23:51;;;;;;;10.27;8.70;;;8.10;99.90;;;;;;5072235;28;20475;-61
2022/11/27 10:26:29;;;;;;;8.53;7.27;;;8.20;99.90;;;;;;5068733;28;20548;-61
2022/11/27 10:29:02;;;;;;;9.43;6.90;;;8.30;99.90;;;;;;5077086;28;20492;-61
2022/11/27 10:31:41;;;;;;;14.03;8.90;;;8.40;99.90;;;;;;5077172;28;20474;-63
2022/11/27 10:34:24;;;;;;;17.10;10.00;;;8.50;99.90;;;;;;5074587;28;20498;-63
2022/11/27 10:36:55;;;;;;;10.90;8.03;;;8.70;99.90;;;;;;5072310;28;20457;-63
2022/11/27 10:39:31;;;;;;;9.87;6.80;;;8.70;99.90;;;;;;5077363;28;20555;-63
2022/11/27 10:42:09;;;;;;;14.07;8.63;;;8.70;99.90;;;;;;5077252;28;20457;-63
2022/11/27 10:44:44;;;;;;;19.20;11.63;;;8.90;99.90;;;;;;5075521;28;20447;-63
2022/11/27 10:47:18;;;;;;;7.80;6.13;;;9.30;99.90;;;;;;5076686;28;20465;-62
2022/11/27 10:49:48;;;;;;;12.43;6.23;;;9.50;99.90;;;;;;5072005;28;20477;-62
2022/11/27 10:52:17;;;;;;;8.67;6.90;;;9.40;99.90;;;;;;5063350;28;21168;-63
2022/11/27 10:54:52;;;;;;;8.37;5.80;;;9.40;99.90;;;;;;5076362;28;20485;-63
2022/11/27 10:57:50;;;;;;;8.40;6.50;;;9.40;99.90;;;;;;5064810;28;20883;-63
2022/11/27 11:00:23;;;;;;;7.93;5.33;;;9.50;99.90;;;;;;5057037;28;20454;-63
2022/11/27 11:03:00;;;;;;;7.63;5.30;;;9.70;99.90;;;;;;5057238;28;20501;-63
2022/11/27 11:05:29;;;;;;;7.27;5.20;;;9.70;99.90;;;;;;5056432;28;20458;-62
2022/11/27 11:07:59;;;;;;;8.47;5.97;;;9.60;99.90;;;;;;5069411;28;20761;-62
2022/11/27 11:10:30;;;;;;;9.00;5.67;;;9.50;99.90;;;;;;5059242;28;20465;-63
2022/11/27 11:13:20;;;;;;;7.60;5.13;;;9.40;99.90;;;;;;5057400;28;20910;-63
2022/11/27 11:15:57;;;;;;;8.93;5.53;;;9.20;99.90;;;;;;5056935;28;20493;-63
2022/11/27 11:18:29;;;;;;;7.23;4.70;;;9.10;99.90;;;;;;5070004;28;20485;-63
2022/11/27 11:20:59;;;;;;;5.97;5.10;;;9.10;99.90;;;;;;5077262;28;20465;-63
2022/11/27 11:23:30;;;;;;;8.40;5.17;;;9.00;99.90;;;;;;5076757;28;20556;-63
2022/11/27 11:26:01;;;;;;;7.60;4.73;;;9.10;99.90;;;;;;5077214;28;20435;-63
2022/11/27 11:28:34;;;;;;;7.70;4.43;;;9.00;99.90;;;;;;5084922;28;20763;-62
2022/11/27 11:31:09;;;;;;;6.77;4.67;;;9.00;99.90;;;;;;5084651;28;20460;-63
2022/11/27 11:33:48;;;;;;;6.60;5.27;;;8.90;99.90;;;;;;5065922;28;20442;-63
2022/11/27 11:36:17;;;;;;;5.00;4.50;;;8.80;99.90;;;;;;5076344;28;20471;-63
2022/11/27 11:38:49;;;;;;;12.30;5.30;;;8.80;99.90;;;;;;5067176;28;20462;-63
2022/11/27 11:41:22;;;;;;;8.57;5.63;;;8.80;99.90;;;;;;5056863;28;20461;-64
2022/11/27 11:44:03;;;;;;;17.87;9.50;;;8.80;99.90;;;;;;5058074;28;20470;-62
2022/11/27 11:46:35;;;;;;;12.53;6.40;;;8.80;99.90;;;;;;5055910;28;20504;-63
2022/11/27 11:49:05;;;;;;;8.97;5.77;;;8.80;99.90;;;;;;5063616;28;20461;-64
2022/11/27 11:51:51;;;;;;;12.30;6.80;;;8.90;99.90;;;;;;5073482;28;20462;-63
2022/11/27 11:54:39;;;;;;;9.53;6.93;;;8.80;99.90;;;;;;5071101;28;20428;-64
2022/11/27 11:57:19;;;;;;;6.37;4.80;;;8.90;99.90;;;;;;5076772;28;20506;-62
2022/11/27 11:59:55;;;;;;;8.37;5.57;;;8.80;99.90;;;;;;5074307;28;20544;-63
2022/11/27 12:02:44;;;;;;;7.13;5.13;;;8.90;99.90;;;;;;5063372;28;20431;-64
2022/11/27 12:05:34;;;;;;;6.00;4.30;;;8.80;99.90;;;;;;5055908;28;20456;-62
2022/11/27 12:08:26;;;;;;;10.43;4.97;;;8.90;99.90;;;;;;5064894;28;20518;-62
2022/11/27 12:11:05;;;;;;;6.90;4.60;;;8.80;99.90;;;;;;5084929;28;20458;-63
2022/11/27 12:13:48;;;;;;;7.23;5.27;;;8.80;99.90;;;;;;5081763;28;20449;-63
2022/11/27 12:16:26;;;;;;;5.80;4.07;;;8.90;99.90;;;;;;5081663;28;20572;-62
2022/11/27 12:19:11;;;;;;;7.43;4.97;;;8.80;99.90;;;;;;5081679;28;20457;-63
2022/11/27 12:21:51;;;;;;;9.27;5.20;;;8.80;99.90;;;;;;5074792;28;20457;-63
2022/11/27 12:24:31;;;;;;;6.87;4.33;;;8.90;99.90;;;;;;5074795;28;20769;-64
2022/11/27 12:27:11;;;;;;;8.00;4.97;;;9.00;99.90;;;;;;5059646;28;20456;-64
2022/11/27 12:30:03;;;;;;;5.10;4.03;;;9.10;99.90;;;;;;5067806;28;20915;-65
2022/11/27 12:32:54;;;;;;;6.70;4.33;;;9.10;99.90;;;;;;5078231;28;20488;-63
2022/11/27 12:35:34;;;;;;;6.33;4.40;;;9.10;99.90;;;;;;5076696;28;20489;-64
2022/11/27 12:38:22;;;;;;;7.20;4.23;;;9.10;99.90;;;;;;5080001;28;20478;-63
2022/11/27 12:41:04;;;;;;;8.83;3.77;;;9.10;99.90;;;;;;5071042;28;20445;-64
2022/11/27 12:43:35;;;;;;;5.43;3.90;;;9.20;99.90;;;;;;5079896;28;20460;-64
2022/11/27 12:46:13;;;;;;;6.87;4.30;;;9.10;99.90;;;;;;5077104;28;20817;-63
2022/11/27 12:48:46;;;;;;;7.53;4.40;;;9.00;99.90;;;;;;5078493;28;20493;-63
2022/11/27 12:51:21;;;;;;;9.23;4.83;;;8.90;99.90;;;;;;5076048;28;20435;-64
2022/11/27 12:53:57;;;;;;;6.07;4.20;;;8.80;99.90;;;;;;5072424;28;20465;-64
2022/11/27 12:56:30;;;;;;;9.07;4.20;;;8.80;99.90;;;;;;5078406;28;20493;-64
2022/11/27 12:59:04;;;;;;;7.83;3.90;;;8.80;99.90;;;;;;5078139;28;20440;-64
2022/11/27 13:01:39;;;;;;;4.90;4.17;;;8.80;99.90;;;;;;5078620;28;20839;-64
2022/11/27 13:04:18;;;;;;;6.10;4.10;;;8.90;99.90;;;;;;5058096;28;20914;-64
2022/11/27 13:06:52;;;;;;;5.73;4.20;;;8.90;99.90;;;;;;5059647;28;20458;-66
2022/11/27 13:09:30;;;;;;;7.27;4.70;;;8.80;99.90;;;;;;5059144;28;20490;-63
2022/11/27 13:11:58;;;;;;;5.77;4.03;;;8.90;99.90;;;;;;5059725;28;20864;-65
2022/11/27 13:14:27;;;;;;;4.97;4.03;;;8.90;99.90;;;;;;5072563;28;20925;-63
2022/11/27 13:17:00;;;;;;;11.67;8.23;;;9.00;99.90;;;;;;5075276;28;20496;-63